Gangca, China
Current Conditions -  °F | °C
As of 4:00 PM on Wednesday 22 Oct 2014 (Local Time) from ZLLL Reporting Station
Clear Clear  
Wind Chill: 61°   Ceiling: Unl
Heat Index: 61°   Visibility: 6mi
Dew Point: 25°   Wind: 9mph
Humidity: 25%   Direction: 210°SSW
Pressure: 30.24"   Gusts: NA
Location:  37.33°N, 100.13°E
Report Text: ZLLL 220800Z 21004MPS CAVOK 16/M04 Q1024 NOSIG
Loading
Personal Weather Stations






























Interactive Weather Map
Tropical Storm Tracking
New forecast layout! Learn more

10-Day Weather Forecast

Advertisements
Track Severe Weather on mobile